Indianapolis, Indiana
Traffic Map
Current Weather Conditions
Indianapolis, Indiana
Overcast
Overcast
31°
Feels Like: 23°
Wind Chill: 23° Ceiling: 15000
Heat Index: 31° Visibility: 10mi
Dew Point: 23° Wind: 8mph
Humidity: 72% Direction: 50° (NE)
Pressure: 30.05in Gusts: 0mph
Raw Report DataKIND 262354Z 05007KT 10SM BKN150 OVC200 M01/M05 A3005 RMK AO2 SLP183 T10061050 10011 21006 51004
Traffic Incident Summary
Active as of:
Severity:
Category:
InformationThere was an issue retrieving the traffic information for this location. Please try a different location or try again shortly.
Advertisements
Track Severe Weather on mobile